Time;durP1;ratioP1;P1;durP2;ratioP2;P2;SDS_P1;SDS_P2;PMS_P1;PMS_P2;Temp;Humidity;BMP_temperature;BMP_pressure;BME280_temperature;BME280_humidity;BME280_pressure;Samples;Min_cycle;Max_cycle;Signal;HPM_P1;HPM_P2
2022/07/10 00:02:16;;;;;;;4.88;2.00;;;;;;;17.42;67.06;101153.38;4930668;28;20076;-73
2022/07/10 00:04:43;;;;;;;4.38;1.80;;;;;;;17.40;67.45;101157.97;4928929;28;20047;-71
2022/07/10 00:07:10;;;;;;;5.38;1.88;;;;;;;17.40;67.31;101160.66;4933197;28;20055;-71
2022/07/10 00:09:36;;;;;;;4.10;1.50;;;;;;;17.34;67.13;101153.84;4928142;28;20047;-74
2022/07/10 00:12:05;;;;;;;4.43;2.20;;;;;;;17.20;66.81;101135.13;4928520;28;20590;-73
2022/07/10 00:14:31;;;;;;;5.55;1.77;;;;;;;17.31;66.92;101158.56;4935701;28;20047;-71
2022/07/10 00:16:58;;;;;;;4.45;1.55;;;;;;;17.08;67.27;101122.53;4933806;28;20075;-72
2022/07/10 00:19:25;;;;;;;2.97;1.73;;;;;;;17.16;67.24;101155.88;4931391;28;20058;-71
2022/07/10 00:21:51;;;;;;;3.58;1.70;;;;;;;17.13;67.05;101157.91;4932544;28;20062;-72
2022/07/10 00:24:18;;;;;;;4.90;1.75;;;;;;;17.09;67.47;101159.03;4926788;28;20496;-70
2022/07/10 00:26:46;;;;;;;2.33;1.50;;;;;;;17.07;67.24;101156.44;4930908;28;20043;-70
2022/07/10 00:29:13;;;;;;;3.65;1.40;;;;;;;17.01;67.19;101153.28;4928749;28;20489;-72
2022/07/10 00:31:40;;;;;;;2.90;1.45;;;;;;;17.02;67.39;101155.00;4929070;28;20070;-72
2022/07/10 00:34:07;;;;;;;3.85;1.70;;;;;;;17.04;66.81;101159.31;4934258;28;20068;-70
2022/07/10 00:36:33;;;;;;;1.40;1.30;;;;;;;17.01;66.31;101158.63;4931287;28;20047;-71
2022/07/10 00:39:00;;;;;;;2.50;1.52;;;;;;;17.00;66.70;101170.31;4934628;28;20043;-71
2022/07/10 00:41:27;;;;;;;3.15;1.27;;;;;;;16.95;66.72;101173.25;4935246;29;20051;-71
2022/07/10 00:43:58;;;;;;;2.95;1.42;;;;;;;16.89;67.18;101170.94;4927555;28;20416;-71
2022/07/10 00:46:26;;;;;;;4.05;1.75;;;;;;;16.95;66.54;101175.94;4932264;28;20051;-71
2022/07/10 00:48:54;;;;;;;3.97;1.40;;;;;;;16.84;67.02;101163.19;4929140;28;20051;-72
2022/07/10 00:51:23;;;;;;;4.10;1.60;;;;;;;16.87;66.63;101170.19;4930589;29;20055;-71
2022/07/10 00:53:51;;;;;;;1.97;1.20;;;;;;;16.80;65.58;101172.38;4928770;28;20048;-72
2022/07/10 00:56:21;;;;;;;8.90;1.55;;;;;;;16.76;65.55;101180.69;4930179;28;20066;-70
2022/07/10 00:58:49;;;;;;;2.75;1.35;;;;;;;16.70;66.15;101183.72;4925280;28;20048;-71
2022/07/10 01:01:16;;;;;;;3.45;1.40;;;;;;;16.70;65.84;101181.03;4932159;28;20055;-70
2022/07/10 01:03:45;;;;;;;5.75;1.50;;;;;;;16.64;66.04;101182.28;4928093;28;20102;-71
2022/07/10 01:06:13;;;;;;;4.53;1.92;;;;;;;16.51;66.54;101164.34;4927910;28;20114;-70
2022/07/10 01:08:40;;;;;;;4.53;1.80;;;;;;;16.44;66.87;101172.72;4924658;28;20051;-71
2022/07/10 01:11:08;;;;;;;4.00;1.85;;;;;;;16.33;67.20;101153.78;4929122;28;20590;-70
2022/07/10 01:13:35;;;;;;;5.03;1.70;;;;;;;16.42;67.57;101177.28;4929486;28;20056;-70
2022/07/10 01:16:01;;;;;;;3.88;1.92;;;;;;;16.39;67.67;101176.59;4925950;28;20488;-69
2022/07/10 01:18:28;;;;;;;6.72;2.08;;;;;;;16.36;67.93;101168.78;4924444;28;20130;-70
2022/07/10 01:20:56;;;;;;;5.20;1.55;;;;;;;16.31;68.12;101169.06;4931758;28;20131;-71
2022/07/10 01:23:23;;;;;;;2.92;1.52;;;;;;;16.24;68.31;101166.81;4925776;29;20104;-70
2022/07/10 01:25:50;;;;;;;6.45;1.60;;;;;;;16.17;68.53;101154.78;4924713;28;20111;-70
2022/07/10 01:28:18;;;;;;;4.90;1.80;;;;;;;16.18;68.58;101167.19;4922319;28;20135;-74
2022/07/10 01:30:45;;;;;;;3.40;1.77;;;;;;;16.18;68.83;101172.53;4923410;28;20647;-71
2022/07/10 01:33:12;;;;;;;4.03;1.70;;;;;;;16.19;69.07;101175.13;4928736;28;20092;-70
2022/07/10 01:35:40;;;;;;;2.33;1.42;;;;;;;16.16;68.86;101169.09;4931853;28;20236;-71
2022/07/10 01:38:07;;;;;;;3.35;1.55;;;;;;;16.17;68.80;101171.66;4929367;28;20048;-70
2022/07/10 01:40:33;;;;;;;5.63;1.70;;;;;;;16.20;68.86;101166.16;4925542;28;20044;-70
2022/07/10 01:43:00;;;;;;;3.80;1.58;;;;;;;16.10;68.45;101140.91;4923410;29;20472;-70
2022/07/10 01:45:27;;;;;;;7.30;1.85;;;;;;;16.29;69.02;101180.78;4927366;28;20055;-70
2022/07/10 01:47:54;;;;;;;4.78;1.58;;;;;;;16.17;69.43;101163.66;4927417;28;20059;-71
2022/07/10 01:50:20;;;;;;;5.05;1.60;;;;;;;16.25;69.70;101185.44;4933698;28;20079;-74
2022/07/10 01:52:47;;;;;;;5.22;1.98;;;;;;;16.22;69.89;101185.59;4929609;28;20065;-71
2022/07/10 01:55:14;;;;;;;8.73;1.80;;;;;;;16.21;69.87;101186.59;4932693;28;20070;-72
2022/07/10 01:57:41;;;;;;;5.25;1.70;;;;;;;16.17;70.22;101189.50;4933251;29;20047;-72
2022/07/10 02:00:09;;;;;;;4.80;1.45;;;;;;;16.00;70.27;101172.63;4926183;28;20060;-70
2022/07/10 02:02:36;;;;;;;5.75;1.73;;;;;;;16.09;69.57;101189.94;4932522;28;20052;-70
2022/07/10 02:05:03;;;;;;;3.78;1.58;;;;;;;16.01;69.54;101189.53;4937164;28;20062;-70
2022/07/10 02:07:29;;;;;;;3.55;1.55;;;;;;;15.94;69.34;101175.66;4929084;28;20075;-71
2022/07/10 02:09:56;;;;;;;3.20;1.38;;;;;;;15.98;68.89;101182.56;4925153;28;20048;-70
2022/07/10 02:12:22;;;;;;;5.78;1.77;;;;;;;15.97;68.52;101185.31;4932850;28;20060;-69
2022/07/10 02:14:49;;;;;;;3.50;1.20;;;;;;;15.91;68.36;101172.28;4932110;28;20047;-72
2022/07/10 02:17:16;;;;;;;4.75;1.48;;;;;;;15.89;68.04;101177.75;4930910;28;20460;-72
2022/07/10 02:19:43;;;;;;;3.60;1.40;;;;;;;15.85;68.49;101175.31;4936498;28;20143;-70
2022/07/10 02:22:09;;;;;;;2.45;1.23;;;;;;;15.77;68.16;101167.72;4935148;28;20048;-69
2022/07/10 02:24:36;;;;;;;3.40;1.17;;;;;;;15.69;68.39;101173.50;4932979;28;20056;-70
2022/07/10 02:27:03;;;;;;;4.63;1.77;;;;;;;15.63;68.57;101164.97;4936114;28;20107;-72
2022/07/10 02:29:30;;;;;;;4.97;1.80;;;;;;;15.65;68.97;101171.94;4931201;28;20437;-70
2022/07/10 02:31:56;;;;;;;3.13;1.42;;;;;;;15.56;69.33;101172.47;4925725;28;20060;-70
2022/07/10 02:34:23;;;;;;;4.55;1.63;;;;;;;15.56;68.70;101169.81;4928071;28;20055;-70
2022/07/10 02:36:50;;;;;;;2.67;1.40;;;;;;;15.48;69.27;101172.00;4931985;28;20134;-73
2022/07/10 02:39:17;;;;;;;6.05;1.58;;;;;;;15.51;68.54;101182.50;4930538;28;20106;-73
2022/07/10 02:41:43;;;;;;;2.90;1.45;;;;;;;15.48;68.81;101177.31;4931575;28;20512;-72
2022/07/10 02:44:11;;;;;;;3.22;1.30;;;;;;;15.31;68.76;101150.69;4928662;28;20055;-70
2022/07/10 02:46:38;;;;;;;5.25;1.48;;;;;;;15.29;69.54;101152.56;4924713;28;20051;-72
2022/07/10 02:49:05;;;;;;;4.63;1.60;;;;;;;15.38;69.83;101181.44;4927364;28;20052;-71
2022/07/10 02:51:31;;;;;;;4.38;1.73;;;;;;;15.28;70.32;101191.75;4923421;29;20464;-71
2022/07/10 02:53:58;;;;;;;3.50;1.50;;;;;;;15.27;70.60;101186.47;4934736;29;20405;-72
2022/07/10 02:56:25;;;;;;;3.90;1.55;;;;;;;15.23;70.55;101190.28;4927003;28;20087;-71
2022/07/10 02:58:51;;;;;;;2.85;1.35;;;;;;;15.06;70.71;101173.38;4930075;28;20059;-71
2022/07/10 03:01:18;;;;;;;6.78;1.60;;;;;;;15.15;70.68;101189.81;4925306;28;20087;-71
2022/07/10 03:03:45;;;;;;;4.28;1.35;;;;;;;15.03;70.86;101188.66;4922558;28;20066;-71
2022/07/10 03:06:11;;;;;;;4.47;1.38;;;;;;;15.00;70.98;101184.34;4925722;28;20050;-72
2022/07/10 03:08:38;;;;;;;4.35;1.65;;;;;;;14.99;71.44;101179.97;4920890;28;20062;-73
2022/07/10 03:11:05;;;;;;;1.90;1.30;;;;;;;15.00;70.92;101183.50;4922823;28;20493;-73
2022/07/10 03:13:32;;;;;;;2.83;1.33;;;;;;;14.96;70.79;101188.13;4926614;28;20442;-71
2022/07/10 03:15:58;;;;;;;2.67;1.40;;;;;;;14.95;70.94;101183.72;4927626;28;20055;-71
2022/07/10 03:18:27;;;;;;;4.75;2.92;;;;;;;14.93;70.61;101184.78;4924180;28;20565;-71
2022/07/10 03:20:54;;;;;;;6.30;2.10;;;;;;;14.75;70.61;101165.25;4934785;28;20126;-71
2022/07/10 03:23:21;;;;;;;5.60;2.55;;;;;;;14.82;70.91;101192.44;4929979;28;20051;-72
2022/07/10 03:25:47;;;;;;;8.82;3.10;;;;;;;14.77;70.93;101200.72;4924074;28;20047;-71
2022/07/10 03:28:14;;;;;;;10.02;3.40;;;;;;;14.69;70.79;101173.56;4925944;28;20056;-72
2022/07/10 03:30:41;;;;;;;7.47;3.13;;;;;;;14.73;70.83;101191.13;4934401;28;20048;-73
2022/07/10 03:33:08;;;;;;;7.78;2.25;;;;;;;14.72;70.41;101170.75;4924169;28;20069;-71
2022/07/10 03:35:35;;;;;;;5.35;2.17;;;;;;;14.78;70.10;101190.91;4927766;28;20047;-71
2022/07/10 03:38:02;;;;;;;4.25;1.80;;;;;;;14.81;69.74;101188.91;4930430;28;20044;-71
2022/07/10 03:40:28;;;;;;;4.15;1.70;;;;;;;14.64;69.87;101163.13;4927141;28;20054;-73
2022/07/10 03:42:55;;;;;;;3.33;1.52;;;;;;;14.82;69.25;101197.78;4925826;28;20184;-73
2022/07/10 03:45:22;;;;;;;5.18;1.38;;;;;;;14.79;69.21;101200.63;4932901;28;20058;-70
2022/07/10 03:47:48;;;;;;;6.35;2.35;;;;;;;14.78;69.60;101202.44;4923734;28;20708;-70
2022/07/10 03:50:15;;;;;;;8.93;2.10;;;;;;;14.79;69.29;101198.81;4931844;28;20048;-71
2022/07/10 03:52:44;;;;;;;8.23;2.13;;;;;;;14.78;68.73;101205.09;4932467;28;20047;-71
2022/07/10 03:55:11;;;;;;;7.05;2.30;;;;;;;14.73;68.94;101200.00;4929396;28;20163;-71
2022/07/10 04:00:27;;;;;;;7.18;1.92;;;;;;;14.12;68.70;101116.09;4932331;28;20501;-71
2022/07/10 04:03:01;;;;;;;8.30;1.92;;;;;;;14.61;69.10;101200.63;4931986;28;20051;-73
2022/07/10 04:05:29;;;;;;;6.85;1.80;;;;;;;14.66;69.22;101216.38;4928883;28;20051;-72
2022/07/10 04:07:58;;;;;;;3.95;1.65;;;;;;;14.62;69.27;101214.81;4931427;28;20048;-72
2022/07/10 04:10:26;;;;;;;6.45;1.50;;;;;;;14.57;69.25;101219.50;4933225;28;20107;-70
2022/07/10 04:12:53;;;;;;;2.70;1.25;;;;;;;14.60;69.53;101216.69;4925714;29;20134;-70
2022/07/10 04:15:20;;;;;;;5.80;1.52;;;;;;;14.68;68.91;101212.69;4931034;28;20111;-72
2022/07/10 04:17:50;;;;;;;4.32;1.63;;;;;;;14.62;68.33;101197.03;4929436;28;20079;-73
2022/07/10 04:20:18;;;;;;;5.57;1.50;;;;;;;14.77;68.21;101213.19;4926153;28;20159;-74
2022/07/10 04:22:45;;;;;;;3.38;1.05;;;;;;;14.70;67.67;101204.63;4917835;28;20077;-74
2022/07/10 04:25:12;;;;;;;4.20;1.30;;;;;;;14.75;67.79;101207.91;4939649;28;20063;-70
2022/07/10 04:27:39;;;;;;;5.40;1.30;;;;;;;14.78;67.21;101223.75;4931089;28;20098;-71
2022/07/10 04:30:07;;;;;;;6.10;1.15;;;;;;;14.65;66.96;101203.97;4929398;28;20059;-70
2022/07/10 04:32:33;;;;;;;4.20;1.50;;;;;;;14.60;67.39;101209.56;4926817;28;20044;-71
2022/07/10 04:35:03;;;;;;;3.63;0.90;;;;;;;14.68;67.31;101225.16;4930407;28;20079;-70
2022/07/10 04:37:30;;;;;;;4.13;1.48;;;;;;;14.72;67.14;101240.06;4930568;28;20099;-71
2022/07/10 04:39:56;;;;;;;2.40;1.00;;;;;;;14.54;66.66;101215.19;4934358;28;20142;-70
2022/07/10 04:42:25;;;;;;;4.30;0.90;;;;;;;14.58;66.57;101230.09;4926206;28;20143;-70
2022/07/10 04:44:53;;;;;;;5.05;1.45;;;;;;;14.59;67.12;101242.50;4930398;28;20051;-70
2022/07/10 04:47:19;;;;;;;2.30;0.80;;;;;;;14.56;66.20;101247.09;4925431;28;20059;-71
2022/07/10 04:49:46;;;;;;;1.77;0.80;;;;;;;14.55;66.35;101242.72;4920878;28;20052;-72
2022/07/10 04:52:13;;;;;;;2.17;0.88;;;;;;;14.61;66.17;101250.41;4923781;28;20078;-70
2022/07/10 04:54:39;;;;;;;4.88;0.85;;;;;;;14.55;65.91;101216.06;4928802;28;20480;-70
2022/07/10 04:57:06;;;;;;;5.90;1.20;;;;;;;14.75;65.10;101234.56;4927725;28;20105;-74
2022/07/10 04:59:33;;;;;;;3.53;0.85;;;;;;;14.77;65.39;101238.03;4930427;28;20071;-71
2022/07/10 05:01:59;;;;;;;2.92;0.88;;;;;;;14.80;65.19;101239.66;4925394;28;20060;-71
2022/07/10 05:04:26;;;;;;;7.07;1.15;;;;;;;14.88;64.66;101240.16;4924693;28;20059;-70
2022/07/10 05:06:53;;;;;;;3.28;1.00;;;;;;;14.93;64.08;101236.31;4926932;28;20648;-69
2022/07/10 05:09:20;;;;;;;2.65;1.10;;;;;;;14.96;63.50;101240.59;4925766;28;20075;-70
2022/07/10 05:11:47;;;;;;;3.95;1.10;;;;;;;14.91;64.13;101243.53;4926608;28;20082;-70
2022/07/10 05:14:13;;;;;;;5.82;1.27;;;;;;;15.02;63.71;101246.50;4928281;28;20052;-69
2022/07/10 05:16:40;;;;;;;4.65;0.90;;;;;;;14.93;63.61;101230.97;4919147;28;20047;-70
2022/07/10 05:19:07;;;;;;;3.17;1.08;;;;;;;14.95;63.57;101218.41;4931972;28;20115;-69
2022/07/10 05:21:34;;;;;;;3.58;1.02;;;;;;;15.22;62.28;101253.47;4927164;28;20545;-71
2022/07/10 05:24:01;;;;;;;5.10;0.70;;;;;;;15.32;60.74;101248.47;4928526;28;20050;-70
2022/07/10 05:26:27;;;;;;;2.70;0.60;;;;;;;15.46;59.10;101243.28;4924160;28;20134;-69
2022/07/10 05:28:54;;;;;;;2.50;0.63;;;;;;;15.57;58.00;101230.25;4924300;28;20095;-69
2022/07/10 05:31:21;;;;;;;3.28;0.90;;;;;;;15.51;58.51;101230.53;4928055;28;20051;-72
2022/07/10 05:33:47;;;;;;;1.50;0.52;;;;;;;15.51;58.26;101235.88;4923400;28;20487;-71
2022/07/10 05:36:14;;;;;;;4.15;0.60;;;;;;;15.64;58.01;101239.66;4926653;28;20485;-71
2022/07/10 05:38:41;;;;;;;3.83;1.05;;;;;;;15.70;56.59;101241.13;4927694;28;20047;-71
2022/07/10 05:41:08;;;;;;;3.20;0.82;;;;;;;15.82;56.73;101263.63;4933878;29;20054;-70
2022/07/10 05:43:35;;;;;;;2.13;0.47;;;;;;;15.91;56.55;101261.28;4931797;28;20047;-70
2022/07/10 05:46:02;;;;;;;2.22;0.80;;;;;;;15.95;55.53;101245.97;4930081;28;20054;-72
2022/07/10 05:48:28;;;;;;;1.88;0.45;;;;;;;15.91;55.64;101257.75;4929584;28;20059;-71
2022/07/10 05:50:55;;;;;;;3.38;0.82;;;;;;;15.94;55.71;101262.94;4933705;28;20457;-70
2022/07/10 05:53:42;;;;;;;4.20;0.75;;;;;;;15.94;55.61;101263.78;4932149;28;20122;-71
2022/07/10 05:56:09;;;;;;;4.40;0.77;;;;;;;15.95;56.19;101267.34;4932653;28;20051;-70
2022/07/10 05:58:35;;;;;;;3.55;0.50;;;;;;;15.94;55.11;101265.59;4929801;28;20074;-70
2022/07/10 06:01:03;;;;;;;3.80;0.52;;;;;;;15.88;54.14;101247.28;4934574;28;20102;-71
2022/07/10 06:03:29;;;;;;;3.90;0.50;;;;;;;16.13;53.28;101266.31;4927803;28;20048;-70
2022/07/10 06:05:58;;;;;;;2.13;0.57;;;;;;;16.24;53.05;101268.38;4931895;28;20040;-70
2022/07/10 06:08:24;;;;;;;3.15;0.57;;;;;;;16.38;53.04;101265.78;4930741;28;20115;-71
2022/07/10 06:10:51;;;;;;;3.33;0.70;;;;;;;16.35;52.64;101258.81;4928950;28;20377;-70
2022/07/10 06:13:18;;;;;;;2.65;0.60;;;;;;;16.56;52.64;101269.19;4925338;28;20055;-70
2022/07/10 06:15:45;;;;;;;2.30;0.43;;;;;;;16.60;51.49;101265.41;4938266;28;20050;-69
2022/07/10 06:18:12;;;;;;;3.65;0.85;;;;;;;16.51;50.60;101272.16;4935099;28;20467;-70
2022/07/10 06:20:38;;;;;;;1.40;0.50;;;;;;;16.50;51.35;101270.44;4931034;28;20059;-71
2022/07/10 06:23:05;;;;;;;1.90;0.75;;;;;;;16.59;51.39;101285.06;4935247;28;20044;-76
2022/07/10 06:25:32;;;;;;;2.42;0.52;;;;;;;16.59;51.78;101259.19;4926824;28;20052;-72
2022/07/10 06:27:58;;;;;;;3.75;0.50;;;;;;;16.69;50.69;101268.44;4931218;28;20687;-70
2022/07/10 06:30:25;;;;;;;2.42;0.45;;;;;;;16.46;51.02;101256.38;4925876;28;20064;-70
2022/07/10 06:32:52;;;;;;;6.43;0.52;;;;;;;16.46;50.54;101280.44;4931375;28;20056;-70
2022/07/10 06:35:18;;;;;;;1.95;0.65;;;;;;;16.99;50.09;101272.94;4927719;28;20052;-70
2022/07/10 06:37:45;;;;;;;2.35;0.40;;;;;;;17.80;48.17;101269.69;4929100;28;20056;-71
2022/07/10 06:40:14;;;;;;;2.22;0.45;;;;;;;18.52;45.95;101276.63;4933251;28;20150;-70
2022/07/10 06:42:40;;;;;;;3.42;0.60;;;;;;;19.06;44.85;101273.88;4928374;28;20051;-71
2022/07/10 06:45:10;;;;;;;2.90;0.63;;;;;;;19.18;44.34;101265.03;4933115;28;20079;-70
2022/07/10 06:47:57;;;;;;;1.88;0.43;;;;;;;19.18;44.42;101281.13;4930649;28;20055;-72
2022/07/10 06:50:26;;;;;;;1.65;0.40;;;;;;;18.79;44.38;101263.22;4922619;28;20066;-71
2022/07/10 06:52:53;;;;;;;1.70;0.60;;;;;;;18.76;44.72;101262.56;4930030;28;20099;-71
2022/07/10 06:55:20;;;;;;;2.50;0.40;;;;;;;18.82;43.82;101262.16;4926316;28;20115;-72
2022/07/10 06:57:47;;;;;;;4.22;0.70;;;;;;;18.93;43.84;101265.81;4922732;28;20056;-71
2022/07/10 07:00:15;;;;;;;2.03;0.55;;;;;;;19.02;44.30;101256.31;4933926;28;20055;-71
2022/07/10 07:02:42;;;;;;;2.42;0.45;;;;;;;19.12;43.31;101257.38;4928042;28;20484;-71
2022/07/10 07:05:09;;;;;;;5.13;0.80;;;;;;;18.99;43.50;101264.56;4927740;28;20060;-70
2022/07/10 07:07:36;;;;;;;1.02;0.32;;;;;;;18.39;43.39;101265.00;4935747;28;20484;-69
2022/07/10 07:10:04;;;;;;;3.10;0.60;;;;;;;18.17;45.39;101267.34;4935271;28;20122;-69
2022/07/10 07:12:31;;;;;;;4.95;0.85;;;;;;;18.17;45.97;101270.03;4931984;28;20052;-72
2022/07/10 07:14:58;;;;;;;2.95;0.50;;;;;;;18.35;45.00;101268.81;4923332;28;20107;-74
2022/07/10 07:17:33;;;;;;;0.93;0.40;;;;;;;18.36;43.79;101258.97;4933187;28;20054;-71
2022/07/10 07:25:31;;;;;;;3.00;0.70;;;;;;;18.37;44.12;101274.97;4929903;28;20071;-73
2022/07/10 07:27:58;;;;;;;2.20;0.43;;;;;;;18.16;44.60;101268.28;4927848;28;20258;-71
2022/07/10 07:30:25;;;;;;;2.13;0.50;;;;;;;18.04;45.27;101272.63;4923256;28;20064;-70
2022/07/10 07:32:51;;;;;;;5.05;0.70;;;;;;;18.33;45.23;101272.56;4929577;28;20108;-73
2022/07/10 07:35:18;;;;;;;3.40;0.77;;;;;;;18.54;44.46;101272.03;4927594;29;20066;-72
2022/07/10 07:37:47;;;;;;;3.47;0.55;;;;;;;18.76;43.50;101278.66;4928671;28;20043;-71
2022/07/10 07:40:19;;;;;;;2.40;0.45;;;;;;;18.85;43.58;101275.38;4932820;28;20402;-70
2022/07/10 07:42:46;;;;;;;1.48;0.50;;;;;;;19.02;43.80;101275.09;4922680;28;20082;-71
2022/07/10 07:45:13;;;;;;;1.33;0.52;;;;;;;18.95;43.29;101270.22;4926705;28;20048;-69
2022/07/10 07:47:47;;;;;;;3.47;0.50;;;;;;;18.79;43.63;101278.44;4925921;28;20117;-73
2022/07/10 07:50:16;;;;;;;3.13;0.50;;;;;;;18.53;44.04;101267.63;4925958;28;20436;-72
2022/07/10 07:52:44;;;;;;;2.03;0.68;;;;;;;18.20;44.81;101249.25;4927131;28;20054;-71
2022/07/10 07:55:12;;;;;;;2.75;0.45;;;;;;;18.45;45.85;101272.63;4924261;28;20524;-70
2022/07/10 07:57:39;;;;;;;3.00;0.70;;;;;;;18.48;45.02;101277.78;4928220;28;20146;-72
2022/07/10 08:00:08;;;;;;;1.05;0.50;;;;;;;18.35;45.57;101274.19;4932448;28;20047;-71
2022/07/10 08:02:35;;;;;;;3.92;0.68;;;;;;;18.48;45.13;101280.47;4930956;28;20052;-70
2022/07/10 08:05:04;;;;;;;1.73;0.60;;;;;;;18.34;45.54;101272.47;4919618;28;20090;-70
2022/07/10 08:07:39;;;;;;;3.20;0.65;;;;;;;18.18;45.15;101261.88;4920460;28;20154;-70
2022/07/10 08:10:10;;;;;;;3.00;0.60;;;;;;;18.35;45.35;101278.69;4921503;28;20761;-72
2022/07/10 08:12:38;;;;;;;2.67;0.65;;;;;;;18.55;44.65;101270.22;4921641;28;20063;-71
2022/07/10 08:15:08;;;;;;;6.63;0.93;;;;;;;18.43;45.33;101279.91;4924407;28;20052;-75
2022/07/10 08:17:34;;;;;;;5.22;0.73;;;;;;;18.26;45.58;101268.59;4919819;28;20079;-71
2022/07/10 08:20:02;;;;;;;5.50;0.65;;;;;;;18.18;44.08;101263.69;4922407;28;20052;-70
2022/07/10 08:22:29;;;;;;;4.88;0.60;;;;;;;18.38;44.40;101273.13;4922290;28;20051;-71
2022/07/10 08:24:59;;;;;;;3.10;0.85;;;;;;;18.69;44.58;101272.84;4925630;28;20047;-71
2022/07/10 08:27:25;;;;;;;2.45;0.73;;;;;;;18.96;43.94;101264.75;4923696;28;20094;-71
2022/07/10 08:29:52;;;;;;;2.45;0.77;;;;;;;18.99;43.83;101269.94;4919729;29;20130;-73
2022/07/10 08:32:19;;;;;;;3.83;0.70;;;;;;;18.63;44.47;101267.88;4923730;28;20066;-71
2022/07/10 08:34:46;;;;;;;3.42;0.75;;;;;;;18.62;44.63;101259.94;4923286;28;20052;-71
2022/07/10 08:37:12;;;;;;;4.43;1.10;;;;;;;18.88;44.49;101256.38;4924939;28;20044;-71
2022/07/10 08:39:39;;;;;;;1.55;0.50;;;;;;;19.05;43.78;101265.94;4931905;28;20070;-71
2022/07/10 08:42:07;;;;;;;3.13;0.85;;;;;;;19.15;43.65;101241.06;4929538;28;20058;-71
2022/07/10 08:44:34;;;;;;;3.13;0.70;;;;;;;19.94;44.29;101256.94;4928258;28;20099;-73
2022/07/10 08:47:02;;;;;;;2.00;0.45;;;;;;;20.66;41.47;101252.47;4930381;28;20056;-72
2022/07/10 08:49:30;;;;;;;2.90;0.70;;;;;;;20.81;40.21;101242.38;4925106;28;20146;-71
2022/07/10 08:52:02;;;;;;;4.63;0.60;;;;;;;20.96;39.49;101261.88;4926777;28;20144;-70
2022/07/10 08:54:29;;;;;;;1.25;0.30;;;;;;;20.80;39.60;101266.72;4923162;28;20496;-71
2022/07/10 08:56:57;;;;;;;3.85;0.52;;;;;;;20.94;39.75;101248.53;4924104;28;20048;-71
2022/07/10 08:59:24;;;;;;;2.22;0.50;;;;;;;21.21;39.00;101258.22;4927169;28;20052;-70
2022/07/10 09:01:58;;;;;;;3.45;0.75;;;;;;;21.28;38.85;101262.97;4922923;28;20044;-72
2022/07/10 09:04:26;;;;;;;2.20;0.70;;;;;;;21.10;39.16;101234.75;4927196;28;20059;-70
2022/07/10 09:06:54;;;;;;;2.17;0.70;;;;;;;20.43;40.60;101258.75;4926566;28;20044;-71
2022/07/10 09:09:22;;;;;;;3.95;0.88;;;;;;;20.01;42.14;101269.91;4930085;28;20484;-73
2022/07/10 09:11:58;;;;;;;5.10;0.88;;;;;;;19.92;43.25;101264.25;4926121;28;20055;-72
2022/07/10 09:14:27;;;;;;;2.08;0.70;;;;;;;19.58;43.03;101251.50;4927203;28;20044;-72
2022/07/10 09:17:01;;;;;;;2.88;0.82;;;;;;;19.33;44.16;101254.19;4934070;28;20103;-72
2022/07/10 09:19:29;;;;;;;3.72;0.95;;;;;;;19.28;44.56;101263.41;4928068;28;20130;-73
2022/07/10 09:22:10;;;;;;;3.10;0.70;;;;;;;19.42;43.01;101264.25;4926675;28;20059;-72
2022/07/10 09:24:41;;;;;;;3.45;0.70;;;;;;;19.66;42.92;101248.28;4931386;28;20147;-71
2022/07/10 09:27:09;;;;;;;3.60;1.20;;;;;;;19.88;42.56;101252.00;4933091;28;20047;-73
2022/07/10 09:29:57;;;;;;;2.75;0.80;;;;;;;20.01;43.27;101245.72;4931519;28;20081;-70
2022/07/10 09:32:26;;;;;;;3.55;0.80;;;;;;;20.12;42.23;101248.50;4928560;28;20579;-72
2022/07/10 09:37:43;;;;;;;2.47;0.80;;;;;;;19.99;43.37;101245.81;4925963;28;20051;-72
2022/07/10 09:40:10;;;;;;;4.72;1.50;;;;;;;19.84;44.19;101247.81;4933678;28;20146;-70
2022/07/10 09:42:39;;;;;;;5.30;1.00;;;;;;;19.46;45.12;101246.97;4934821;28;20542;-72
2022/07/10 09:45:18;;;;;;;3.97;1.00;;;;;;;18.98;46.17;101254.78;4927135;28;20062;-70
2022/07/10 09:47:56;;;;;;;3.50;0.82;;;;;;;18.79;46.26;101252.47;4926133;29;20085;-72
2022/07/10 09:50:29;;;;;;;4.70;0.95;;;;;;;18.79;46.60;101257.00;4934071;28;20063;-69
2022/07/10 09:53:02;;;;;;;3.05;1.13;;;;;;;18.86;45.71;101226.97;4927788;28;20067;-71
2022/07/10 09:55:34;;;;;;;3.88;1.13;;;;;;;19.02;45.55;101252.75;4933669;28;20578;-70
2022/07/10 09:58:05;;;;;;;3.00;0.90;;;;;;;19.01;45.65;101251.03;4918623;28;20451;-71
2022/07/10 10:00:35;;;;;;;3.50;1.02;;;;;;;19.15;45.55;101242.88;4917582;28;20138;-70
2022/07/10 10:03:03;;;;;;;;;;;;;;;19.49;45.36;101236.91;4921544;28;20536;-71
2022/07/10 10:05:53;;;;;;;3.25;0.80;;;;;;;20.11;43.96;101233.34;4920298;28;19933;-71
2022/07/10 10:08:30;;;;;;;;;;;;;;;20.41;42.36;101219.47;4917281;28;20051;-69
2022/07/10 10:10:59;;;;;;;2.20;0.90;;;;;;;20.47;41.47;101219.84;4928844;28;19923;-70
2022/07/10 10:13:27;;;;;;;3.05;0.88;;;;;;;20.44;41.00;101193.22;4927109;28;20059;-70
2022/07/10 10:15:55;;;;;;;4.03;1.02;;;;;;;20.54;41.82;101204.13;4922651;28;20111;-72
2022/07/10 10:18:23;;;;;;;3.30;1.00;;;;;;;20.82;40.94;101202.88;4925106;28;20074;-70
2022/07/10 10:20:52;;;;;;;6.78;1.27;;;;;;;20.89;40.83;101204.13;4917840;28;20135;-73
2022/07/10 10:23:21;;;;;;;3.58;0.80;;;;;;;21.05;40.68;101203.78;4926909;28;20055;-71
2022/07/10 10:25:56;;;;;;;4.43;0.90;;;;;;;21.00;40.19;101206.84;4928065;28;20492;-70
2022/07/10 10:28:24;;;;;;;4.43;1.20;;;;;;;20.81;40.36;101193.94;4926713;28;20051;-71
2022/07/10 10:30:54;;;;;;;4.10;1.08;;;;;;;20.76;41.40;101196.13;4929681;28;20130;-73
2022/07/10 10:33:42;;;;;;;5.70;1.02;;;;;;;20.55;41.75;101192.38;4922452;28;20115;-72
2022/07/10 10:36:12;;;;;;;2.67;1.08;;;;;;;20.35;42.46;101193.84;4926767;28;20539;-71
2022/07/10 10:38:44;;;;;;;3.67;1.08;;;;;;;20.11;42.99;101195.69;4927771;28;20134;-71
2022/07/10 10:41:24;;;;;;;6.70;1.13;;;;;;;19.68;42.50;101209.56;4930559;28;20160;-72
2022/07/10 10:44:09;;;;;;;3.97;1.00;;;;;;;19.52;44.25;101208.94;4929746;28;20540;-71
2022/07/10 10:47:05;;;;;;;4.30;1.00;;;;;;;19.37;44.78;101201.94;4926855;28;20557;-71
2022/07/10 10:49:59;;;;;;;6.65;1.13;;;;;;;19.43;44.59;101209.56;4926305;28;20059;-72
2022/07/10 10:52:26;;;;;;;4.88;1.40;;;;;;;19.49;44.16;101195.72;4927749;28;20047;-72
2022/07/10 10:55:03;;;;;;;4.70;1.00;;;;;;;19.85;45.00;101208.34;4925260;28;20118;-71
2022/07/10 10:57:45;;;;;;;4.80;1.20;;;;;;;20.24;43.65;101204.56;4931132;28;20481;-73
2022/07/10 11:00:15;;;;;;;3.25;1.13;;;;;;;20.79;42.09;101190.50;4929555;28;20062;-70
2022/07/10 11:02:42;;;;;;;2.63;0.80;;;;;;;21.25;41.88;101190.50;4922605;28;20058;-72
2022/07/10 11:05:12;;;;;;;3.33;1.00;;;;;;;21.29;41.39;101197.34;4920358;28;20070;-72
2022/07/10 11:07:58;;;;;;;4.32;1.20;;;;;;;21.10;41.25;101164.72;4926153;28;20055;-70
2022/07/10 11:10:44;;;;;;;3.15;0.90;;;;;;;21.28;41.04;101179.47;4927511;28;20047;-71
2022/07/10 11:13:16;;;;;;;2.95;0.90;;;;;;;21.51;40.20;101180.34;4928605;28;20064;-69
2022/07/10 11:15:48;;;;;;;5.72;1.20;;;;;;;21.69;39.36;101173.47;4928402;28;20063;-70
2022/07/10 11:18:18;;;;;;;3.85;0.88;;;;;;;21.46;40.04;101182.53;4918075;28;20048;-72
2022/07/10 11:20:51;;;;;;;4.85;1.00;;;;;;;21.02;40.27;101189.59;4928711;28;20051;-72
2022/07/10 11:23:59;;;;;;;4.07;1.05;;;;;;;20.62;41.06;101182.84;4927953;28;20107;-71
2022/07/10 11:26:36;;;;;;;4.90;0.90;;;;;;;20.27;41.86;101159.47;4923698;28;20062;-71
2022/07/10 11:29:07;;;;;;;3.63;1.17;;;;;;;20.54;41.82;101177.22;4925174;29;20078;-71
2022/07/10 11:31:38;;;;;;;2.42;0.82;;;;;;;20.69;42.38;101170.66;4921599;28;20047;-70
2022/07/10 11:34:04;;;;;;;3.28;1.00;;;;;;;20.99;41.91;101162.03;4924813;28;20560;-71
2022/07/10 11:36:32;;;;;;;4.75;0.85;;;;;;;21.27;40.21;101161.59;4926108;28;20456;-71
2022/07/10 11:39:00;;;;;;;3.40;1.00;;;;;;;21.41;39.95;101152.41;4923995;29;20536;-73
2022/07/10 11:41:28;;;;;;;3.67;0.95;;;;;;;21.75;39.50;101155.06;4924310;28;20489;-71
2022/07/10 11:44:00;;;;;;;2.97;1.08;;;;;;;21.90;39.11;101143.88;4925426;28;20446;-72
2022/07/10 11:46:28;;;;;;;3.97;0.93;;;;;;;22.23;38.50;101148.34;4926026;28;20103;-74